x

San Clemente Basin - 27nm Se Of San Clemente Is, Ca (46086) Wave Buoy

10:50 - Fri 28th Apr 2017 All times are PDT. -7 hours from GMT.

  • Sig Wave height 7.9ft
  • Swell Direction
  • Peak Period 9s
  • Average Period 7s
  • Wind
    9mph, 16mph gusts
  • Sea Temp 63°f
  • Air Temp 64°f
  • Sea Pressure 1009.5mb
  • San Clemente Basin - 27nm Se Of San Clemente Is, Ca
  • San Clemente Basin - 27nm Se Of San Clemente Is, Ca

More Historic Weather Station data

Upgrade to MSW Pro to gain access to the past 30 days of data for over 8000 Wavebouys and Weather Stations around the globe.

Join Pro

Comparision Forecast

View Surf forecast
   
ven. 04/28 10:50 8ft 9s 7s 9 16 mph 1009.5mb 63f 64f
9:50 8ft 8s 7s 13 18 mph 1008.8mb 63f 62f
8:50 8ft 9s 6s 18 22 mph 1008.4mb 63f 61f
7:50 8.5ft 10s 6s 22 27 mph 1007.9mb 63f 61f
6:50 9.5ft 8s 7s 25 31 mph 1007.4mb 63f 61f
5:50 9.5ft 9s 6s 22 29 mph 1007.5mb 63f 61f
4:50 9ft 10s 7s 25 29 mph 1007.2mb 63f 61f
3:50 8.5ft 11s 6s 25 29 mph 1007.3mb 63f 61f
2:50 9ft 10s 7s 22 27 mph 1008.7mb 63f 61f
1:50 9ft 9s 7s 20 25 mph 1009.2mb 63f 61f
12:50 9.5ft 10s 7s 18 20 mph 1009.4mb 63f 62f
11:50 10ft 10s 7s 16 18 mph 1009.9mb 62f 62f
10:50 9ft 10s 7s 20 22 mph 1009.7mb 62f 61f
9:50 10ft 10s 7s 18 22 mph 1009.6mb 62f 60f
8:50 10ft 10s 7s 20 25 mph 1009.1mb 62f 60f
7:50 10ft 10s 7s 20 25 mph 1009.1mb 62f 60f
6:50 10ft 10s 7s 20 22 mph 1008.5mb 62f 61f
3:50 9ft 10s 7s 22 27 mph 1007.1mb 62f 61f
2:50 10ft 10s 7s 22 27 mph 1006.9mb 62f 61f
1:50 11ft 10s 7s 20 27 mph 1007.5mb 62f 62f
12:50 9.5ft 9s 7s 13 16 mph 1007.8mb 62f 62f
jeu. 04/27 11:50 9.5ft 10s 7s 16 22 mph 1008mb 62f 63f
10:50 10ft 9s 7s 18 22 mph 1007.7mb 63f 62f
9:50 9ft 10s 7s 22 25 mph 1008mb 63f 62f
8:50 9ft 9s 7s 20 22 mph 1008mb 63f 62f
7:50 9ft 8s 7s 18 22 mph 1007.7mb 63f 61f
6:50 8ft 9s 7s 18 22 mph 1008.1mb 63f 61f
4:50 9ft 9s 7s 20 22 mph 1008.3mb 63f 61f
3:50 8ft 10s 7s 20 25 mph 1008.5mb 63f 60f
2:50 8ft 9s 7s 20 25 mph 1009.3mb 63f 60f
1:50 8ft 10s 7s 18 20 mph 1009.5mb 63f 59f
12:50 8ft 9s 7s 18 22 mph 1010.1mb 62f 59f
11:50 9ft 9s 7s 18 20 mph 1010.6mb 62f 59f
10:50 8.5ft 9s 7s 18 20 mph 1010.6mb 62f 59f
9:50 8ft 8s 7s 13 18 mph 1010.9mb 62f 59f
8:50 9.5ft 9s 7s 13 16 mph 1010.5mb 62f 59f
7:50 9.5ft 9s 7s 16 18 mph 1010.6mb 62f 59f
6:50 9ft 9s 7s 20 25 mph 1010mb 63f 58f
5:50 11ft 8s 7s 20 25 mph 1009.5mb 63f 59f
4:50 10.5ft 9s 7s 20 25 mph 1009.8mb 62f 59f
3:50 10.5ft 9s 7s 22 27 mph 1010mb 62f 59f
2:50 11ft 9s 7s 22 29 mph 1010.2mb 62f 59f
1:50 9ft 8s 7s 25 29 mph 1010.4mb 62f 59f
12:50 9.5ft 9s 7s 18 22 mph 1010.9mb 62f 60f
mer. 04/26 11:50 8ft 9s 7s 20 25 mph 1011.2mb 62f 60f
10:50 8ft 9s 7s 20 25 mph 1011mb 63f 60f
9:50 8ft 9s 7s 18 20 mph 1011.6mb 63f 60f
8:50 7.5ft 9s 7s 16 20 mph 1011.3mb 63f 62f
7:50 7ft 9s 7s 11 13 mph 1011.2mb 63f 61f
6:50 7.5ft 9s 7s 13 16 mph 1011.1mb 63f 62f
4:50 7ft 9s 7s 18 20 mph 1011.6mb 63f 61f
3:50 7ft 9s 7s 16 18 mph 1012.1mb 63f 61f
2:50 7.5ft 8s 7s 16 20 mph 1012.6mb 63f 60f
1:50 7.5ft 8s 7s 11 13 mph 1013mb 63f 60f
12:50 7.5ft 8s 7s 13 16 mph 1013.7mb 63f 61f
11:50 7.5ft 8s 7s 7 9 mph 1013.2mb 63f 61f
10:50 7.5ft 9s 7s 9 11 mph 1014.2mb 63f 61f
9:50 8ft 9s 8s 9 11 mph 1013.5mb 62f 60f
8:50 7.5ft 9s 7s 9 11 mph 1012.8mb 62f 60f
7:50 8.5ft 10s 8s 13 16 mph 1012.4mb 62f 60f
5:50 9ft 9s 8s 4 9 mph 1012mb 62f 61f
4:50 9.5ft 9s 8s 7 9 mph 1011.8mb 62f 61f
3:50 9.5ft 10s 8s 11 13 mph 1012mb 62f 60f
2:50 9ft 8s 7s 11 13 mph 1011.8mb 62f 60f
1:50 9ft 8s 7s 11 13 mph 1012.4mb 62f 60f
12:50 9ft 9s 7s 13 18 mph 1012.8mb 62f 60f
mar. 04/25 11:50 9ft 9s 7s 16 20 mph 1013mb 62f 60f
10:50 9.5ft 8s 7s 18 20 mph 1013mb 62f 60f
9:50 10ft 9s 7s 18 20 mph 1013.1mb 62f 60f
8:50 9ft 9s 7s 18 22 mph 1013.1mb 62f 60f
7:50 9ft 9s 7s 18 20 mph 1012.4mb 62f 60f
6:50 9.5ft 9s 7s 18 22 mph 1012.2mb 62f 60f
5:50 9ft 9s 7s 20 25 mph 1012.5mb 62f 59f
4:50 9.5ft 9s 7s 22 29 mph 1012.6mb 62f 60f
3:50 10ft 9s 7s 22 29 mph 1012.8mb 62f 59f
2:50 9ft 9s 7s 20 22 mph 1013.1mb 62f 59f
1:50 9ft 9s 7s 20 25 mph 1013.7mb 62f 59f
12:50 10ft 8s 7s 20 25 mph 1013.9mb 62f 59f
11:50 10.5ft 9s 7s 20 25 mph 1014.2mb 62f 59f
10:50 11ft 9s 7s 18 22 mph 1014mb 61f 59f
9:50 10ft 8s 7s 18 22 mph 1013.7mb 61f 59f
8:50 10ft 9s 7s 22 27 mph 1013.1mb 61f 58f
7:50 10ft 9s 7s 27 31 mph 1012.4mb 62f 58f